sensor_id;sensor_type;location;lat;lon;timestamp;P1;durP1;ratioP1;P2;durP2;ratioP2
64339;SDS011;63709;53.258;-8.814;2023-12-20T00:01:01;18.00;;;1.02;;
64339;SDS011;63709;53.258;-8.814;2023-12-20T00:03:27;1.02;;;0.52;;
64339;SDS011;63709;53.258;-8.814;2023-12-20T00:05:52;3.97;;;1.83;;
64339;SDS011;63709;53.258;-8.814;2023-12-20T00:08:18;13.15;;;0.90;;
64339;SDS011;63709;53.258;-8.814;2023-12-20T00:10:43;5.07;;;1.00;;
64339;SDS011;63709;53.258;-8.814;2023-12-20T00:13:09;5.97;;;1.23;;
64339;SDS011;63709;53.258;-8.814;2023-12-20T00:15:35;3.53;;;1.02;;
64339;SDS011;63709;53.258;-8.814;2023-12-20T00:18:00;6.38;;;1.23;;
64339;SDS011;63709;53.258;-8.814;2023-12-20T00:20:26;0.20;;;0.20;;
64339;SDS011;63709;53.258;-8.814;2023-12-20T00:22:54;5.32;;;0.75;;
64339;SDS011;63709;53.258;-8.814;2023-12-20T00:25:21;4.93;;;0.65;;
64339;SDS011;63709;53.258;-8.814;2023-12-20T00:27:47;4.47;;;0.52;;
64339;SDS011;63709;53.258;-8.814;2023-12-20T00:30:12;2.53;;;0.37;;
64339;SDS011;63709;53.258;-8.814;2023-12-20T00:32:38;2.38;;;0.55;;
64339;SDS011;63709;53.258;-8.814;2023-12-20T00:35:03;1.42;;;0.28;;
64339;SDS011;63709;53.258;-8.814;2023-12-20T00:37:29;3.33;;;0.47;;
64339;SDS011;63709;53.258;-8.814;2023-12-20T00:39:54;0.55;;;0.55;;
64339;SDS011;63709;53.258;-8.814;2023-12-20T00:42:20;1.55;;;0.85;;
64339;SDS011;63709;53.258;-8.814;2023-12-20T00:44:45;0.20;;;0.20;;
64339;SDS011;63709;53.258;-8.814;2023-12-20T00:47:11;0.10;;;0.10;;
64339;SDS011;63709;53.258;-8.814;2023-12-20T00:49:36;0.10;;;0.10;;
64339;SDS011;63709;53.258;-8.814;2023-12-20T00:52:01;5.78;;;1.13;;
64339;SDS011;63709;53.258;-8.814;2023-12-20T00:54:27;2.10;;;0.38;;
64339;SDS011;63709;53.258;-8.814;2023-12-20T00:59:18;3.20;;;0.82;;
64339;SDS011;63709;53.258;-8.814;2023-12-20T01:01:44;14.75;;;0.57;;
64339;SDS011;63709;53.258;-8.814;2023-12-20T01:04:10;3.20;;;0.75;;
64339;SDS011;63709;53.258;-8.814;2023-12-20T01:06:35;3.70;;;1.20;;
64339;SDS011;63709;53.258;-8.814;2023-12-20T01:09:01;4.03;;;1.67;;
64339;SDS011;63709;53.258;-8.814;2023-12-20T01:11:26;9.07;;;1.17;;
64339;SDS011;63709;53.258;-8.814;2023-12-20T01:13:51;1.40;;;1.30;;
64339;SDS011;63709;53.258;-8.814;2023-12-20T01:16:17;3.10;;;0.50;;
64339;SDS011;63709;53.258;-8.814;2023-12-20T01:18:42;0.43;;;0.32;;
64339;SDS011;63709;53.258;-8.814;2023-12-20T01:21:08;2.07;;;0.20;;
64339;SDS011;63709;53.258;-8.814;2023-12-20T01:23:33;0.20;;;0.20;;
64339;SDS011;63709;53.258;-8.814;2023-12-20T01:25:58;1.67;;;0.70;;
64339;SDS011;63709;53.258;-8.814;2023-12-20T01:28:27;2.00;;;0.75;;
64339;SDS011;63709;53.258;-8.814;2023-12-20T01:30:53;0.32;;;0.25;;
64339;SDS011;63709;53.258;-8.814;2023-12-20T01:33:18;0.28;;;0.28;;
64339;SDS011;63709;53.258;-8.814;2023-12-20T01:35:44;8.23;;;1.00;;
64339;SDS011;63709;53.258;-8.814;2023-12-20T01:38:09;0.80;;;0.73;;
64339;SDS011;63709;53.258;-8.814;2023-12-20T01:40:35;1.88;;;0.65;;
64339;SDS011;63709;53.258;-8.814;2023-12-20T01:45:33;1.65;;;0.75;;
64339;SDS011;63709;53.258;-8.814;2023-12-20T01:47:59;3.03;;;1.65;;
64339;SDS011;63709;53.258;-8.814;2023-12-20T01:50:26;0.30;;;0.20;;
64339;SDS011;63709;53.258;-8.814;2023-12-20T01:52:53;2.63;;;0.60;;
64339;SDS011;63709;53.258;-8.814;2023-12-20T01:55:22;4.50;;;0.88;;
64339;SDS011;63709;53.258;-8.814;2023-12-20T01:57:49;0.60;;;0.52;;
64339;SDS011;63709;53.258;-8.814;2023-12-20T02:02:41;6.10;;;1.00;;
64339;SDS011;63709;53.258;-8.814;2023-12-20T02:05:07;2.65;;;1.20;;
64339;SDS011;63709;53.258;-8.814;2023-12-20T02:07:33;1.17;;;0.50;;
64339;SDS011;63709;53.258;-8.814;2023-12-20T02:10:00;18.63;;;1.60;;
64339;SDS011;63709;53.258;-8.814;2023-12-20T02:12:26;3.97;;;0.80;;
64339;SDS011;63709;53.258;-8.814;2023-12-20T02:14:51;13.23;;;1.65;;
64339;SDS011;63709;53.258;-8.814;2023-12-20T02:17:17;6.88;;;1.63;;
64339;SDS011;63709;53.258;-8.814;2023-12-20T02:19:43;1.60;;;0.90;;
64339;SDS011;63709;53.258;-8.814;2023-12-20T02:22:11;10.40;;;0.85;;
64339;SDS011;63709;53.258;-8.814;2023-12-20T02:24:37;2.15;;;0.60;;
64339;SDS011;63709;53.258;-8.814;2023-12-20T02:27:03;0.10;;;0.10;;
64339;SDS011;63709;53.258;-8.814;2023-12-20T02:29:30;1.30;;;0.70;;
64339;SDS011;63709;53.258;-8.814;2023-12-20T02:31:56;1.88;;;0.65;;
64339;SDS011;63709;53.258;-8.814;2023-12-20T02:34:21;0.10;;;0.10;;
64339;SDS011;63709;53.258;-8.814;2023-12-20T02:36:47;1.17;;;1.07;;
64339;SDS011;63709;53.258;-8.814;2023-12-20T02:39:12;0.67;;;0.47;;
64339;SDS011;63709;53.258;-8.814;2023-12-20T02:41:38;5.30;;;0.68;;
64339;SDS011;63709;53.258;-8.814;2023-12-20T02:44:03;1.40;;;0.93;;
64339;SDS011;63709;53.258;-8.814;2023-12-20T02:46:29;3.20;;;0.52;;
64339;SDS011;63709;53.258;-8.814;2023-12-20T02:48:54;6.73;;;0.57;;
64339;SDS011;63709;53.258;-8.814;2023-12-20T02:51:20;6.15;;;0.75;;
64339;SDS011;63709;53.258;-8.814;2023-12-20T02:53:45;1.00;;;0.47;;
64339;SDS011;63709;53.258;-8.814;2023-12-20T02:56:11;5.18;;;0.40;;
64339;SDS011;63709;53.258;-8.814;2023-12-20T02:58:36;0.17;;;0.10;;
64339;SDS011;63709;53.258;-8.814;2023-12-20T03:01:02;1.65;;;0.38;;
64339;SDS011;63709;53.258;-8.814;2023-12-20T03:03:27;0.38;;;0.30;;
64339;SDS011;63709;53.258;-8.814;2023-12-20T03:05:52;4.50;;;1.58;;
64339;SDS011;63709;53.258;-8.814;2023-12-20T03:08:18;6.57;;;2.78;;
64339;SDS011;63709;53.258;-8.814;2023-12-20T03:10:43;2.33;;;0.35;;
64339;SDS011;63709;53.258;-8.814;2023-12-20T03:13:09;9.82;;;1.75;;
64339;SDS011;63709;53.258;-8.814;2023-12-20T03:15:34;1.80;;;0.50;;
64339;SDS011;63709;53.258;-8.814;2023-12-20T03:18:00;6.35;;;0.82;;
64339;SDS011;63709;53.258;-8.814;2023-12-20T03:20:25;7.55;;;1.52;;
64339;SDS011;63709;53.258;-8.814;2023-12-20T03:22:56;0.10;;;0.10;;
64339;SDS011;63709;53.258;-8.814;2023-12-20T03:25:21;4.35;;;0.63;;
64339;SDS011;63709;53.258;-8.814;2023-12-20T03:27:46;4.00;;;0.52;;
64339;SDS011;63709;53.258;-8.814;2023-12-20T03:30:12;3.75;;;0.85;;
64339;SDS011;63709;53.258;-8.814;2023-12-20T03:32:38;1.98;;;0.85;;
64339;SDS011;63709;53.258;-8.814;2023-12-20T03:35:03;1.52;;;0.28;;
64339;SDS011;63709;53.258;-8.814;2023-12-20T03:37:29;1.92;;;0.30;;
64339;SDS011;63709;53.258;-8.814;2023-12-20T03:39:54;9.93;;;1.10;;
64339;SDS011;63709;53.258;-8.814;2023-12-20T03:42:20;4.40;;;1.00;;
64339;SDS011;63709;53.258;-8.814;2023-12-20T03:44:45;0.10;;;0.10;;
64339;SDS011;63709;53.258;-8.814;2023-12-20T03:47:11;6.80;;;0.55;;
64339;SDS011;63709;53.258;-8.814;2023-12-20T03:49:36;20.58;;;4.22;;
64339;SDS011;63709;53.258;-8.814;2023-12-20T03:52:03;12.15;;;1.52;;
64339;SDS011;63709;53.258;-8.814;2023-12-20T03:54:29;2.53;;;0.82;;
64339;SDS011;63709;53.258;-8.814;2023-12-20T03:56:54;0.40;;;0.40;;
64339;SDS011;63709;53.258;-8.814;2023-12-20T03:59:20;1.30;;;0.87;;
64339;SDS011;63709;53.258;-8.814;2023-12-20T04:01:45;27.70;;;1.88;;
64339;SDS011;63709;53.258;-8.814;2023-12-20T04:04:11;4.53;;;1.17;;
64339;SDS011;63709;53.258;-8.814;2023-12-20T04:06:37;0.30;;;0.20;;
64339;SDS011;63709;53.258;-8.814;2023-12-20T04:11:28;0.28;;;0.28;;
64339;SDS011;63709;53.258;-8.814;2023-12-20T04:13:53;0.10;;;0.10;;
64339;SDS011;63709;53.258;-8.814;2023-12-20T04:16:19;0.63;;;0.32;;
64339;SDS011;63709;53.258;-8.814;2023-12-20T04:18:44;0.20;;;0.20;;
64339;SDS011;63709;53.258;-8.814;2023-12-20T04:21:10;1.10;;;0.50;;
64339;SDS011;63709;53.258;-8.814;2023-12-20T04:23:35;0.20;;;0.20;;
64339;SDS011;63709;53.258;-8.814;2023-12-20T04:26:01;3.00;;;1.30;;
64339;SDS011;63709;53.258;-8.814;2023-12-20T04:28:26;2.83;;;1.05;;
64339;SDS011;63709;53.258;-8.814;2023-12-20T04:30:55;0.10;;;0.10;;
64339;SDS011;63709;53.258;-8.814;2023-12-20T04:33:20;1.52;;;1.17;;
64339;SDS011;63709;53.258;-8.814;2023-12-20T04:35:46;2.63;;;1.17;;
64339;SDS011;63709;53.258;-8.814;2023-12-20T04:38:11;2.45;;;0.60;;
64339;SDS011;63709;53.258;-8.814;2023-12-20T04:40:37;0.90;;;0.55;;
64339;SDS011;63709;53.258;-8.814;2023-12-20T04:43:02;2.50;;;0.68;;
64339;SDS011;63709;53.258;-8.814;2023-12-20T04:45:28;0.60;;;0.43;;
64339;SDS011;63709;53.258;-8.814;2023-12-20T04:47:54;4.55;;;0.82;;
64339;SDS011;63709;53.258;-8.814;2023-12-20T04:50:20;2.03;;;0.63;;
64339;SDS011;63709;53.258;-8.814;2023-12-20T04:52:46;0.15;;;0.15;;
64339;SDS011;63709;53.258;-8.814;2023-12-20T04:55:12;2.40;;;1.30;;
64339;SDS011;63709;53.258;-8.814;2023-12-20T04:57:37;4.68;;;0.45;;
64339;SDS011;63709;53.258;-8.814;2023-12-20T05:00:03;14.05;;;0.32;;
64339;SDS011;63709;53.258;-8.814;2023-12-20T05:02:29;2.05;;;0.47;;
64339;SDS011;63709;53.258;-8.814;2023-12-20T05:04:55;0.68;;;0.40;;
64339;SDS011;63709;53.258;-8.814;2023-12-20T05:07:20;5.95;;;0.52;;
64339;SDS011;63709;53.258;-8.814;2023-12-20T05:09:46;0.10;;;0.10;;
64339;SDS011;63709;53.258;-8.814;2023-12-20T05:12:11;0.15;;;0.15;;
64339;SDS011;63709;53.258;-8.814;2023-12-20T05:14:36;15.63;;;2.40;;
64339;SDS011;63709;53.258;-8.814;2023-12-20T05:17:02;0.30;;;0.30;;
64339;SDS011;63709;53.258;-8.814;2023-12-20T05:19:28;2.97;;;0.75;;
64339;SDS011;63709;53.258;-8.814;2023-12-20T05:21:53;1.90;;;1.05;;
64339;SDS011;63709;53.258;-8.814;2023-12-20T05:24:19;6.43;;;1.93;;
64339;SDS011;63709;53.258;-8.814;2023-12-20T05:26:44;1.17;;;0.52;;
64339;SDS011;63709;53.258;-8.814;2023-12-20T05:29:10;3.80;;;0.95;;
64339;SDS011;63709;53.258;-8.814;2023-12-20T05:31:35;0.90;;;0.38;;
64339;SDS011;63709;53.258;-8.814;2023-12-20T05:34:01;3.40;;;1.40;;
64339;SDS011;63709;53.258;-8.814;2023-12-20T05:36:26;2.17;;;0.70;;
64339;SDS011;63709;53.258;-8.814;2023-12-20T05:38:51;1.17;;;0.93;;
64339;SDS011;63709;53.258;-8.814;2023-12-20T05:43:43;19.30;;;1.40;;
64339;SDS011;63709;53.258;-8.814;2023-12-20T05:46:10;1.47;;;1.37;;
64339;SDS011;63709;53.258;-8.814;2023-12-20T05:48:37;7.28;;;0.55;;
64339;SDS011;63709;53.258;-8.814;2023-12-20T05:51:02;0.73;;;0.38;;
64339;SDS011;63709;53.258;-8.814;2023-12-20T05:53:28;0.45;;;0.30;;
64339;SDS011;63709;53.258;-8.814;2023-12-20T05:55:53;2.50;;;0.90;;
64339;SDS011;63709;53.258;-8.814;2023-12-20T05:58:19;1.35;;;0.65;;
64339;SDS011;63709;53.258;-8.814;2023-12-20T06:00:44;0.20;;;0.20;;
64339;SDS011;63709;53.258;-8.814;2023-12-20T06:03:09;3.23;;;1.37;;
64339;SDS011;63709;53.258;-8.814;2023-12-20T06:05:35;3.33;;;0.85;;
64339;SDS011;63709;53.258;-8.814;2023-12-20T06:08:00;4.32;;;0.45;;
64339;SDS011;63709;53.258;-8.814;2023-12-20T06:10:28;5.78;;;1.23;;
64339;SDS011;63709;53.258;-8.814;2023-12-20T06:12:54;1.70;;;0.95;;
64339;SDS011;63709;53.258;-8.814;2023-12-20T06:15:21;7.82;;;1.35;;
64339;SDS011;63709;53.258;-8.814;2023-12-20T06:17:46;3.45;;;0.45;;
64339;SDS011;63709;53.258;-8.814;2023-12-20T06:20:12;0.22;;;0.22;;
64339;SDS011;63709;53.258;-8.814;2023-12-20T06:22:38;3.25;;;1.17;;
64339;SDS011;63709;53.258;-8.814;2023-12-20T06:25:04;0.70;;;0.68;;
64339;SDS011;63709;53.258;-8.814;2023-12-20T06:27:30;8.68;;;1.55;;
64339;SDS011;63709;53.258;-8.814;2023-12-20T06:29:57;17.15;;;1.92;;
64339;SDS011;63709;53.258;-8.814;2023-12-20T06:32:22;1.08;;;0.80;;
64339;SDS011;63709;53.258;-8.814;2023-12-20T06:34:49;1.35;;;0.55;;
64339;SDS011;63709;53.258;-8.814;2023-12-20T06:37:14;1.73;;;0.95;;
64339;SDS011;63709;53.258;-8.814;2023-12-20T06:39:40;6.38;;;1.13;;
64339;SDS011;63709;53.258;-8.814;2023-12-20T06:42:06;7.95;;;2.42;;
64339;SDS011;63709;53.258;-8.814;2023-12-20T06:44:31;11.82;;;2.38;;
64339;SDS011;63709;53.258;-8.814;2023-12-20T06:46:57;26.80;;;4.13;;
64339;SDS011;63709;53.258;-8.814;2023-12-20T06:49:22;9.40;;;2.85;;
64339;SDS011;63709;53.258;-8.814;2023-12-20T06:51:48;10.38;;;2.80;;
64339;SDS011;63709;53.258;-8.814;2023-12-20T06:54:14;16.20;;;2.40;;
64339;SDS011;63709;53.258;-8.814;2023-12-20T06:56:39;17.53;;;1.67;;
64339;SDS011;63709;53.258;-8.814;2023-12-20T06:59:04;16.20;;;3.03;;
64339;SDS011;63709;53.258;-8.814;2023-12-20T07:01:31;24.02;;;2.92;;
64339;SDS011;63709;53.258;-8.814;2023-12-20T07:03:56;15.02;;;2.75;;
64339;SDS011;63709;53.258;-8.814;2023-12-20T07:06:22;33.90;;;1.93;;
64339;SDS011;63709;53.258;-8.814;2023-12-20T07:08:47;8.45;;;1.92;;
64339;SDS011;63709;53.258;-8.814;2023-12-20T07:11:13;19.63;;;3.40;;
64339;SDS011;63709;53.258;-8.814;2023-12-20T07:13:38;23.92;;;5.07;;
64339;SDS011;63709;53.258;-8.814;2023-12-20T07:16:04;12.68;;;3.15;;
64339;SDS011;63709;53.258;-8.814;2023-12-20T07:18:29;21.77;;;3.53;;
64339;SDS011;63709;53.258;-8.814;2023-12-20T07:20:55;23.43;;;3.20;;
64339;SDS011;63709;53.258;-8.814;2023-12-20T07:23:20;7.65;;;2.13;;
64339;SDS011;63709;53.258;-8.814;2023-12-20T07:25:46;14.65;;;2.60;;
64339;SDS011;63709;53.258;-8.814;2023-12-20T07:28:11;6.80;;;2.40;;
64339;SDS011;63709;53.258;-8.814;2023-12-20T07:30:37;22.60;;;4.07;;
64339;SDS011;63709;53.258;-8.814;2023-12-20T07:33:03;27.88;;;3.42;;
64339;SDS011;63709;53.258;-8.814;2023-12-20T07:35:28;23.25;;;3.55;;
64339;SDS011;63709;53.258;-8.814;2023-12-20T07:37:54;13.80;;;3.17;;
64339;SDS011;63709;53.258;-8.814;2023-12-20T07:40:19;30.38;;;4.55;;
64339;SDS011;63709;53.258;-8.814;2023-12-20T07:42:44;18.65;;;3.58;;
64339;SDS011;63709;53.258;-8.814;2023-12-20T07:45:10;18.60;;;3.20;;
64339;SDS011;63709;53.258;-8.814;2023-12-20T07:47:36;14.13;;;3.60;;
64339;SDS011;63709;53.258;-8.814;2023-12-20T07:50:02;29.83;;;2.85;;
64339;SDS011;63709;53.258;-8.814;2023-12-20T07:52:28;16.67;;;4.13;;
64339;SDS011;63709;53.258;-8.814;2023-12-20T07:57:20;16.90;;;2.42;;
64339;SDS011;63709;53.258;-8.814;2023-12-20T07:59:45;24.67;;;4.22;;
64339;SDS011;63709;53.258;-8.814;2023-12-20T08:02:11;28.20;;;5.20;;
64339;SDS011;63709;53.258;-8.814;2023-12-20T08:04:37;11.60;;;3.05;;
64339;SDS011;63709;53.258;-8.814;2023-12-20T08:07:03;17.98;;;3.17;;
64339;SDS011;63709;53.258;-8.814;2023-12-20T08:11:54;13.93;;;3.63;;
64339;SDS011;63709;53.258;-8.814;2023-12-20T08:14:20;26.83;;;3.45;;
64339;SDS011;63709;53.258;-8.814;2023-12-20T08:16:46;33.78;;;3.13;;
64339;SDS011;63709;53.258;-8.814;2023-12-20T08:19:11;15.35;;;2.63;;
64339;SDS011;63709;53.258;-8.814;2023-12-20T08:21:37;25.20;;;3.50;;
64339;SDS011;63709;53.258;-8.814;2023-12-20T08:24:02;6.33;;;1.87;;
64339;SDS011;63709;53.258;-8.814;2023-12-20T08:26:28;24.38;;;4.60;;
64339;SDS011;63709;53.258;-8.814;2023-12-20T08:28:53;22.98;;;3.70;;
64339;SDS011;63709;53.258;-8.814;2023-12-20T08:31:19;19.55;;;2.22;;
64339;SDS011;63709;53.258;-8.814;2023-12-20T08:33:45;41.00;;;6.38;;
64339;SDS011;63709;53.258;-8.814;2023-12-20T08:36:12;23.63;;;3.95;;
64339;SDS011;63709;53.258;-8.814;2023-12-20T08:38:37;8.57;;;2.33;;
64339;SDS011;63709;53.258;-8.814;2023-12-20T08:41:03;33.90;;;5.75;;
64339;SDS011;63709;53.258;-8.814;2023-12-20T08:43:39;24.40;;;3.75;;
64339;SDS011;63709;53.258;-8.814;2023-12-20T08:46:07;32.25;;;5.88;;
64339;SDS011;63709;53.258;-8.814;2023-12-20T08:48:34;38.03;;;4.35;;
64339;SDS011;63709;53.258;-8.814;2023-12-20T08:51:00;4.38;;;1.85;;
64339;SDS011;63709;53.258;-8.814;2023-12-20T08:53:25;12.55;;;2.33;;
64339;SDS011;63709;53.258;-8.814;2023-12-20T08:55:51;36.05;;;5.13;;
64339;SDS011;63709;53.258;-8.814;2023-12-20T08:58:17;22.35;;;4.28;;
64339;SDS011;63709;53.258;-8.814;2023-12-20T09:00:42;35.72;;;3.72;;
64339;SDS011;63709;53.258;-8.814;2023-12-20T09:03:08;20.20;;;4.28;;
64339;SDS011;63709;53.258;-8.814;2023-12-20T09:05:33;29.45;;;6.25;;
64339;SDS011;63709;53.258;-8.814;2023-12-20T09:07:59;30.25;;;3.17;;
64339;SDS011;63709;53.258;-8.814;2023-12-20T09:10:24;22.05;;;2.75;;
64339;SDS011;63709;53.258;-8.814;2023-12-20T09:12:53;39.25;;;4.10;;
64339;SDS011;63709;53.258;-8.814;2023-12-20T09:15:26;9.88;;;2.20;;
64339;SDS011;63709;53.258;-8.814;2023-12-20T09:17:52;12.35;;;1.15;;
64339;SDS011;63709;53.258;-8.814;2023-12-20T09:20:18;24.58;;;3.50;;
64339;SDS011;63709;53.258;-8.814;2023-12-20T09:22:44;9.45;;;2.25;;
64339;SDS011;63709;53.258;-8.814;2023-12-20T09:25:10;23.60;;;2.70;;
64339;SDS011;63709;53.258;-8.814;2023-12-20T09:27:40;10.57;;;2.65;;
64339;SDS011;63709;53.258;-8.814;2023-12-20T09:30:06;7.38;;;2.20;;
64339;SDS011;63709;53.258;-8.814;2023-12-20T09:32:32;20.40;;;3.90;;
64339;SDS011;63709;53.258;-8.814;2023-12-20T09:34:57;21.20;;;3.83;;
64339;SDS011;63709;53.258;-8.814;2023-12-20T09:37:26;7.30;;;1.88;;
64339;SDS011;63709;53.258;-8.814;2023-12-20T09:39:52;22.38;;;3.13;;
64339;SDS011;63709;53.258;-8.814;2023-12-20T09:44:58;32.60;;;3.40;;
64339;SDS011;63709;53.258;-8.814;2023-12-20T09:47:28;12.10;;;2.10;;
64339;SDS011;63709;53.258;-8.814;2023-12-20T09:49:54;12.25;;;3.13;;
64339;SDS011;63709;53.258;-8.814;2023-12-20T09:54:47;9.57;;;1.92;;
64339;SDS011;63709;53.258;-8.814;2023-12-20T09:57:16;31.30;;;5.00;;
64339;SDS011;63709;53.258;-8.814;2023-12-20T09:59:42;33.30;;;5.20;;
64339;SDS011;63709;53.258;-8.814;2023-12-20T10:02:11;25.63;;;5.38;;
64339;SDS011;63709;53.258;-8.814;2023-12-20T10:04:44;26.05;;;3.72;;
64339;SDS011;63709;53.258;-8.814;2023-12-20T10:07:12;40.45;;;4.82;;
64339;SDS011;63709;53.258;-8.814;2023-12-20T10:09:37;21.35;;;2.90;;
64339;SDS011;63709;53.258;-8.814;2023-12-20T10:12:03;10.65;;;3.63;;
64339;SDS011;63709;53.258;-8.814;2023-12-20T10:14:30;50.08;;;4.28;;
64339;SDS011;63709;53.258;-8.814;2023-12-20T10:17:04;12.57;;;2.55;;
64339;SDS011;63709;53.258;-8.814;2023-12-20T10:19:30;17.10;;;5.22;;
64339;SDS011;63709;53.258;-8.814;2023-12-20T10:21:57;33.28;;;5.57;;
64339;SDS011;63709;53.258;-8.814;2023-12-20T10:24:24;39.55;;;7.03;;
64339;SDS011;63709;53.258;-8.814;2023-12-20T10:26:57;34.38;;;4.22;;
64339;SDS011;63709;53.258;-8.814;2023-12-20T10:29:33;24.20;;;3.83;;
64339;SDS011;63709;53.258;-8.814;2023-12-20T10:31:59;21.40;;;3.95;;
64339;SDS011;63709;53.258;-8.814;2023-12-20T10:34:24;19.92;;;4.80;;
64339;SDS011;63709;53.258;-8.814;2023-12-20T10:36:50;25.50;;;4.93;;
64339;SDS011;63709;53.258;-8.814;2023-12-20T10:39:17;20.58;;;3.75;;
64339;SDS011;63709;53.258;-8.814;2023-12-20T10:41:43;15.48;;;2.33;;
64339;SDS011;63709;53.258;-8.814;2023-12-20T10:44:10;14.13;;;2.95;;
64339;SDS011;63709;53.258;-8.814;2023-12-20T10:46:37;6.47;;;1.70;;
64339;SDS011;63709;53.258;-8.814;2023-12-20T10:49:05;48.85;;;6.75;;
64339;SDS011;63709;53.258;-8.814;2023-12-20T10:51:33;19.15;;;1.65;;
64339;SDS011;63709;53.258;-8.814;2023-12-20T10:54:00;23.83;;;6.20;;
64339;SDS011;63709;53.258;-8.814;2023-12-20T10:56:25;26.90;;;3.42;;
64339;SDS011;63709;53.258;-8.814;2023-12-20T10:58:57;23.45;;;3.83;;
64339;SDS011;63709;53.258;-8.814;2023-12-20T11:01:27;23.98;;;7.40;;
64339;SDS011;63709;53.258;-8.814;2023-12-20T11:03:54;19.55;;;4.40;;
64339;SDS011;63709;53.258;-8.814;2023-12-20T11:09:17;23.27;;;4.80;;
64339;SDS011;63709;53.258;-8.814;2023-12-20T11:14:20;15.93;;;3.22;;
64339;SDS011;63709;53.258;-8.814;2023-12-20T11:16:50;17.92;;;3.30;;
64339;SDS011;63709;53.258;-8.814;2023-12-20T11:19:16;36.88;;;3.53;;
64339;SDS011;63709;53.258;-8.814;2023-12-20T11:21:42;28.65;;;5.35;;
64339;SDS011;63709;53.258;-8.814;2023-12-20T11:24:07;14.82;;;4.80;;
64339;SDS011;63709;53.258;-8.814;2023-12-20T11:26:33;12.77;;;2.03;;
64339;SDS011;63709;53.258;-8.814;2023-12-20T11:31:57;34.95;;;5.82;;
64339;SDS011;63709;53.258;-8.814;2023-12-20T11:34:22;19.80;;;4.05;;
64339;SDS011;63709;53.258;-8.814;2023-12-20T11:37:02;21.08;;;4.32;;
64339;SDS011;63709;53.258;-8.814;2023-12-20T11:39:28;27.83;;;3.70;;
64339;SDS011;63709;53.258;-8.814;2023-12-20T11:41:55;15.10;;;2.97;;
64339;SDS011;63709;53.258;-8.814;2023-12-20T11:44:22;30.50;;;8.45;;
64339;SDS011;63709;53.258;-8.814;2023-12-20T11:46:47;26.58;;;4.72;;
64339;SDS011;63709;53.258;-8.814;2023-12-20T11:49:13;19.42;;;4.53;;
64339;SDS011;63709;53.258;-8.814;2023-12-20T11:51:42;29.27;;;7.57;;
64339;SDS011;63709;53.258;-8.814;2023-12-20T11:54:08;24.25;;;4.72;;
64339;SDS011;63709;53.258;-8.814;2023-12-20T11:56:35;31.30;;;5.50;;
64339;SDS011;63709;53.258;-8.814;2023-12-20T11:59:01;21.60;;;3.50;;
64339;SDS011;63709;53.258;-8.814;2023-12-20T12:01:26;26.20;;;3.88;;
64339;SDS011;63709;53.258;-8.814;2023-12-20T12:04:07;29.70;;;4.40;;
64339;SDS011;63709;53.258;-8.814;2023-12-20T12:06:32;39.72;;;6.45;;
64339;SDS011;63709;53.258;-8.814;2023-12-20T12:08:58;18.15;;;2.15;;
64339;SDS011;63709;53.258;-8.814;2023-12-20T12:11:24;7.20;;;1.92;;
64339;SDS011;63709;53.258;-8.814;2023-12-20T12:13:50;14.20;;;2.15;;
64339;SDS011;63709;53.258;-8.814;2023-12-20T12:16:22;29.38;;;4.70;;
64339;SDS011;63709;53.258;-8.814;2023-12-20T12:18:54;28.75;;;5.28;;
64339;SDS011;63709;53.258;-8.814;2023-12-20T12:21:21;45.15;;;6.47;;
64339;SDS011;63709;53.258;-8.814;2023-12-20T12:23:46;19.08;;;3.60;;
64339;SDS011;63709;53.258;-8.814;2023-12-20T12:26:12;46.90;;;3.65;;
64339;SDS011;63709;53.258;-8.814;2023-12-20T12:28:39;16.55;;;3.38;;
64339;SDS011;63709;53.258;-8.814;2023-12-20T12:31:06;18.98;;;2.55;;
64339;SDS011;63709;53.258;-8.814;2023-12-20T12:33:32;25.02;;;5.78;;
64339;SDS011;63709;53.258;-8.814;2023-12-20T12:35:57;28.40;;;3.35;;
64339;SDS011;63709;53.258;-8.814;2023-12-20T12:38:24;18.70;;;3.33;;
64339;SDS011;63709;53.258;-8.814;2023-12-20T12:40:50;16.48;;;2.22;;
64339;SDS011;63709;53.258;-8.814;2023-12-20T12:43:18;18.77;;;2.88;;
64339;SDS011;63709;53.258;-8.814;2023-12-20T12:45:43;18.45;;;3.22;;
64339;SDS011;63709;53.258;-8.814;2023-12-20T12:48:09;25.67;;;3.38;;
64339;SDS011;63709;53.258;-8.814;2023-12-20T12:50:35;13.32;;;2.42;;
64339;SDS011;63709;53.258;-8.814;2023-12-20T12:53:00;8.10;;;3.22;;
64339;SDS011;63709;53.258;-8.814;2023-12-20T12:55:27;17.15;;;2.75;;
64339;SDS011;63709;53.258;-8.814;2023-12-20T12:57:53;20.23;;;2.47;;
64339;SDS011;63709;53.258;-8.814;2023-12-20T13:00:19;3.22;;;2.28;;
64339;SDS011;63709;53.258;-8.814;2023-12-20T13:02:44;3.50;;;1.05;;
64339;SDS011;63709;53.258;-8.814;2023-12-20T13:05:10;9.95;;;3.05;;
64339;SDS011;63709;53.258;-8.814;2023-12-20T13:07:35;26.92;;;2.90;;
64339;SDS011;63709;53.258;-8.814;2023-12-20T13:10:02;9.80;;;2.10;;
64339;SDS011;63709;53.258;-8.814;2023-12-20T13:12:28;8.65;;;1.48;;
64339;SDS011;63709;53.258;-8.814;2023-12-20T13:14:54;9.15;;;3.45;;
64339;SDS011;63709;53.258;-8.814;2023-12-20T13:17:20;21.20;;;3.03;;
64339;SDS011;63709;53.258;-8.814;2023-12-20T13:19:45;3.95;;;1.02;;
64339;SDS011;63709;53.258;-8.814;2023-12-20T13:22:11;5.10;;;1.08;;
64339;SDS011;63709;53.258;-8.814;2023-12-20T13:24:36;11.27;;;3.20;;
64339;SDS011;63709;53.258;-8.814;2023-12-20T13:27:02;12.25;;;1.80;;
64339;SDS011;63709;53.258;-8.814;2023-12-20T13:29:27;12.02;;;2.28;;
64339;SDS011;63709;53.258;-8.814;2023-12-20T13:31:53;20.92;;;2.47;;
64339;SDS011;63709;53.258;-8.814;2023-12-20T13:34:18;21.05;;;3.30;;
64339;SDS011;63709;53.258;-8.814;2023-12-20T13:36:44;9.23;;;1.88;;
64339;SDS011;63709;53.258;-8.814;2023-12-20T13:39:15;8.25;;;1.83;;
64339;SDS011;63709;53.258;-8.814;2023-12-20T13:41:40;11.20;;;1.75;;
64339;SDS011;63709;53.258;-8.814;2023-12-20T13:44:05;9.63;;;2.53;;
64339;SDS011;63709;53.258;-8.814;2023-12-20T13:46:31;1.97;;;1.20;;
64339;SDS011;63709;53.258;-8.814;2023-12-20T13:48:56;5.22;;;1.75;;
64339;SDS011;63709;53.258;-8.814;2023-12-20T13:51:22;18.10;;;2.97;;
64339;SDS011;63709;53.258;-8.814;2023-12-20T13:53:48;4.93;;;0.70;;
64339;SDS011;63709;53.258;-8.814;2023-12-20T13:56:14;13.07;;;2.05;;
64339;SDS011;63709;53.258;-8.814;2023-12-20T13:58:40;11.20;;;1.90;;
64339;SDS011;63709;53.258;-8.814;2023-12-20T14:01:06;2.28;;;1.65;;
64339;SDS011;63709;53.258;-8.814;2023-12-20T14:03:33;8.45;;;1.60;;
64339;SDS011;63709;53.258;-8.814;2023-12-20T14:05:59;2.55;;;0.98;;
64339;SDS011;63709;53.258;-8.814;2023-12-20T14:08:26;6.20;;;1.60;;
64339;SDS011;63709;53.258;-8.814;2023-12-20T14:10:52;5.30;;;1.80;;
64339;SDS011;63709;53.258;-8.814;2023-12-20T14:13:17;4.47;;;1.40;;
64339;SDS011;63709;53.258;-8.814;2023-12-20T14:15:43;13.05;;;2.13;;
64339;SDS011;63709;53.258;-8.814;2023-12-20T14:18:08;3.42;;;1.13;;
64339;SDS011;63709;53.258;-8.814;2023-12-20T14:20:35;2.53;;;1.05;;
64339;SDS011;63709;53.258;-8.814;2023-12-20T14:23:03;10.40;;;1.27;;
64339;SDS011;63709;53.258;-8.814;2023-12-20T14:25:29;18.55;;;2.60;;
64339;SDS011;63709;53.258;-8.814;2023-12-20T14:27:54;2.10;;;0.75;;
64339;SDS011;63709;53.258;-8.814;2023-12-20T14:30:20;1.40;;;0.70;;
64339;SDS011;63709;53.258;-8.814;2023-12-20T14:32:45;3.22;;;2.13;;
64339;SDS011;63709;53.258;-8.814;2023-12-20T14:35:13;19.42;;;2.40;;
64339;SDS011;63709;53.258;-8.814;2023-12-20T14:37:38;7.05;;;1.15;;
64339;SDS011;63709;53.258;-8.814;2023-12-20T14:40:08;8.02;;;0.80;;
64339;SDS011;63709;53.258;-8.814;2023-12-20T14:42:39;2.92;;;0.65;;
64339;SDS011;63709;53.258;-8.814;2023-12-20T14:45:05;1.40;;;0.35;;
64339;SDS011;63709;53.258;-8.814;2023-12-20T14:47:31;5.07;;;2.10;;
64339;SDS011;63709;53.258;-8.814;2023-12-20T14:49:56;2.37;;;1.50;;
64339;SDS011;63709;53.258;-8.814;2023-12-20T14:52:22;3.72;;;1.08;;